sensor_id;sensor_type;location;lat;lon;timestamp;P1;durP1;ratioP1;P2;durP2;ratioP2
24617;SDS011;12762;51.730;5.356;2023-02-22T00:00:56;43.57;;;18.53;;
24617;SDS011;12762;51.730;5.356;2023-02-22T00:03:28;40.57;;;16.90;;
24617;SDS011;12762;51.730;5.356;2023-02-22T00:06:00;39.90;;;16.77;;
24617;SDS011;12762;51.730;5.356;2023-02-22T00:08:31;37.67;;;16.10;;
24617;SDS011;12762;51.730;5.356;2023-02-22T00:11:01;39.53;;;17.53;;
24617;SDS011;12762;51.730;5.356;2023-02-22T00:13:42;40.97;;;16.40;;
24617;SDS011;12762;51.730;5.356;2023-02-22T00:16:14;40.63;;;16.13;;
24617;SDS011;12762;51.730;5.356;2023-02-22T00:18:51;38.13;;;16.90;;
24617;SDS011;12762;51.730;5.356;2023-02-22T00:21:18;42.47;;;17.60;;
24617;SDS011;12762;51.730;5.356;2023-02-22T00:23:45;39.90;;;17.03;;
24617;SDS011;12762;51.730;5.356;2023-02-22T00:26:17;44.63;;;17.93;;
24617;SDS011;12762;51.730;5.356;2023-02-22T00:28:52;42.40;;;16.57;;
24617;SDS011;12762;51.730;5.356;2023-02-22T00:31:20;44.10;;;17.50;;
24617;SDS011;12762;51.730;5.356;2023-02-22T00:33:47;41.13;;;16.90;;
24617;SDS011;12762;51.730;5.356;2023-02-22T00:36:14;41.27;;;16.93;;
24617;SDS011;12762;51.730;5.356;2023-02-22T00:38:41;40.87;;;17.03;;
24617;SDS011;12762;51.730;5.356;2023-02-22T00:41:08;42.67;;;17.43;;
24617;SDS011;12762;51.730;5.356;2023-02-22T00:43:35;40.47;;;16.30;;
24617;SDS011;12762;51.730;5.356;2023-02-22T00:46:04;42.53;;;17.47;;
24617;SDS011;12762;51.730;5.356;2023-02-22T00:48:31;39.80;;;18.10;;
24617;SDS011;12762;51.730;5.356;2023-02-22T00:50:58;39.93;;;17.90;;
24617;SDS011;12762;51.730;5.356;2023-02-22T00:53:25;40.57;;;17.27;;
24617;SDS011;12762;51.730;5.356;2023-02-22T00:55:52;43.17;;;17.63;;
24617;SDS011;12762;51.730;5.356;2023-02-22T00:58:19;44.10;;;18.57;;
24617;SDS011;12762;51.730;5.356;2023-02-22T01:00:48;47.70;;;18.50;;
24617;SDS011;12762;51.730;5.356;2023-02-22T01:03:17;50.93;;;19.97;;
24617;SDS011;12762;51.730;5.356;2023-02-22T01:05:46;43.00;;;18.30;;
24617;SDS011;12762;51.730;5.356;2023-02-22T01:08:16;47.93;;;19.43;;
24617;SDS011;12762;51.730;5.356;2023-02-22T01:10:43;42.30;;;17.47;;
24617;SDS011;12762;51.730;5.356;2023-02-22T01:13:11;43.93;;;18.47;;
24617;SDS011;12762;51.730;5.356;2023-02-22T01:15:39;39.10;;;16.80;;
24617;SDS011;12762;51.730;5.356;2023-02-22T01:18:07;42.90;;;16.97;;
24617;SDS011;12762;51.730;5.356;2023-02-22T01:20:34;39.53;;;16.97;;
24617;SDS011;12762;51.730;5.356;2023-02-22T01:23:02;38.43;;;16.80;;
24617;SDS011;12762;51.730;5.356;2023-02-22T01:25:32;40.63;;;17.30;;
24617;SDS011;12762;51.730;5.356;2023-02-22T01:28:00;35.50;;;16.13;;
24617;SDS011;12762;51.730;5.356;2023-02-22T01:30:31;39.07;;;17.03;;
24617;SDS011;12762;51.730;5.356;2023-02-22T01:33:01;42.17;;;17.17;;
24617;SDS011;12762;51.730;5.356;2023-02-22T01:35:30;43.07;;;17.27;;
24617;SDS011;12762;51.730;5.356;2023-02-22T01:38:02;35.97;;;15.90;;
24617;SDS011;12762;51.730;5.356;2023-02-22T01:40:31;45.63;;;16.90;;
24617;SDS011;12762;51.730;5.356;2023-02-22T01:43:05;38.07;;;16.23;;
24617;SDS011;12762;51.730;5.356;2023-02-22T01:45:52;41.60;;;17.23;;
24617;SDS011;12762;51.730;5.356;2023-02-22T01:48:24;40.93;;;17.00;;
24617;SDS011;12762;51.730;5.356;2023-02-22T01:51:14;45.17;;;18.50;;
24617;SDS011;12762;51.730;5.356;2023-02-22T01:54:09;45.20;;;17.40;;
24617;SDS011;12762;51.730;5.356;2023-02-22T01:56:44;43.00;;;18.50;;
24617;SDS011;12762;51.730;5.356;2023-02-22T01:59:15;44.77;;;18.63;;
24617;SDS011;12762;51.730;5.356;2023-02-22T02:01:43;43.40;;;18.20;;
24617;SDS011;12762;51.730;5.356;2023-02-22T02:04:12;43.63;;;16.80;;
24617;SDS011;12762;51.730;5.356;2023-02-22T02:06:42;47.53;;;19.43;;
24617;SDS011;12762;51.730;5.356;2023-02-22T02:09:17;45.00;;;19.13;;
24617;SDS011;12762;51.730;5.356;2023-02-22T02:11:54;43.53;;;18.50;;
24617;SDS011;12762;51.730;5.356;2023-02-22T02:14:28;45.70;;;19.27;;
24617;SDS011;12762;51.730;5.356;2023-02-22T02:16:57;48.97;;;20.47;;
24617;SDS011;12762;51.730;5.356;2023-02-22T02:36:02;51.00;;;20.87;;
24617;SDS011;12762;51.730;5.356;2023-02-22T02:41:26;51.53;;;20.23;;
24617;SDS011;12762;51.730;5.356;2023-02-22T02:46:37;57.70;;;22.27;;
24617;SDS011;12762;51.730;5.356;2023-02-22T02:49:15;52.30;;;20.00;;
24617;SDS011;12762;51.730;5.356;2023-02-22T02:51:48;51.17;;;20.50;;
24617;SDS011;12762;51.730;5.356;2023-02-22T02:54:20;49.87;;;20.00;;
24617;SDS011;12762;51.730;5.356;2023-02-22T02:56:48;49.47;;;19.67;;
24617;SDS011;12762;51.730;5.356;2023-02-22T02:59:26;55.17;;;21.40;;
24617;SDS011;12762;51.730;5.356;2023-02-22T03:01:56;48.63;;;19.30;;
24617;SDS011;12762;51.730;5.356;2023-02-22T03:07:02;54.43;;;20.30;;
24617;SDS011;12762;51.730;5.356;2023-02-22T03:09:46;56.43;;;20.80;;
24617;SDS011;12762;51.730;5.356;2023-02-22T03:15:05;50.10;;;20.40;;
24617;SDS011;12762;51.730;5.356;2023-02-22T03:17:44;58.53;;;20.27;;
24617;SDS011;12762;51.730;5.356;2023-02-22T03:23:02;53.40;;;21.20;;
24617;SDS011;12762;51.730;5.356;2023-02-22T03:25:37;58.47;;;21.33;;
24617;SDS011;12762;51.730;5.356;2023-02-22T03:28:09;61.50;;;21.87;;
24617;SDS011;12762;51.730;5.356;2023-02-22T03:30:43;72.90;;;20.50;;
24617;SDS011;12762;51.730;5.356;2023-02-22T03:33:18;89.43;;;21.90;;
24617;SDS011;12762;51.730;5.356;2023-02-22T03:35:56;125.63;;;21.67;;
24617;SDS011;12762;51.730;5.356;2023-02-22T03:38:28;89.57;;;23.27;;
24617;SDS011;12762;51.730;5.356;2023-02-22T03:40:59;74.40;;;22.90;;
24617;SDS011;12762;51.730;5.356;2023-02-22T03:43:28;62.70;;;21.37;;
24617;SDS011;12762;51.730;5.356;2023-02-22T03:46:11;63.37;;;22.77;;
24617;SDS011;12762;51.730;5.356;2023-02-22T03:48:48;67.53;;;22.17;;
24617;SDS011;12762;51.730;5.356;2023-02-22T03:51:19;99.80;;;22.63;;
24617;SDS011;12762;51.730;5.356;2023-02-22T03:53:47;109.43;;;22.33;;
24617;SDS011;12762;51.730;5.356;2023-02-22T03:56:25;95.73;;;20.93;;
24617;SDS011;12762;51.730;5.356;2023-02-22T03:59:02;173.50;;;21.77;;
24617;SDS011;12762;51.730;5.356;2023-02-22T04:01:31;141.83;;;21.83;;
24617;SDS011;12762;51.730;5.356;2023-02-22T04:03:58;133.97;;;21.90;;
24617;SDS011;12762;51.730;5.356;2023-02-22T04:06:29;140.50;;;23.00;;
24617;SDS011;12762;51.730;5.356;2023-02-22T04:08:56;85.67;;;22.43;;
24617;SDS011;12762;51.730;5.356;2023-02-22T04:11:23;100.27;;;23.27;;
24617;SDS011;12762;51.730;5.356;2023-02-22T04:13:53;83.50;;;23.07;;
24617;SDS011;12762;51.730;5.356;2023-02-22T04:16:23;88.87;;;21.37;;
24617;SDS011;12762;51.730;5.356;2023-02-22T04:18:50;130.07;;;24.10;;
24617;SDS011;12762;51.730;5.356;2023-02-22T04:21:19;99.80;;;20.10;;
24617;SDS011;12762;51.730;5.356;2023-02-22T04:23:46;111.83;;;20.37;;
24617;SDS011;12762;51.730;5.356;2023-02-22T04:26:15;177.17;;;24.57;;
24617;SDS011;12762;51.730;5.356;2023-02-22T04:28:43;123.73;;;22.10;;
24617;SDS011;12762;51.730;5.356;2023-02-22T04:31:09;184.50;;;23.70;;
24617;SDS011;12762;51.730;5.356;2023-02-22T04:33:39;104.70;;;22.87;;
24617;SDS011;12762;51.730;5.356;2023-02-22T04:36:06;78.93;;;23.20;;
24617;SDS011;12762;51.730;5.356;2023-02-22T04:38:37;107.27;;;21.00;;
24617;SDS011;12762;51.730;5.356;2023-02-22T04:41:04;88.77;;;21.17;;
24617;SDS011;12762;51.730;5.356;2023-02-22T04:43:31;95.73;;;21.03;;
24617;SDS011;12762;51.730;5.356;2023-02-22T04:45:57;91.83;;;21.30;;
24617;SDS011;12762;51.730;5.356;2023-02-22T04:48:24;94.40;;;22.20;;
24617;SDS011;12762;51.730;5.356;2023-02-22T04:50:51;143.63;;;23.73;;
24617;SDS011;12762;51.730;5.356;2023-02-22T04:53:18;112.87;;;23.63;;
24617;SDS011;12762;51.730;5.356;2023-02-22T04:55:45;157.10;;;23.97;;
24617;SDS011;12762;51.730;5.356;2023-02-22T04:58:12;132.63;;;23.90;;
24617;SDS011;12762;51.730;5.356;2023-02-22T05:00:39;82.93;;;22.23;;
24617;SDS011;12762;51.730;5.356;2023-02-22T05:03:05;149.03;;;24.10;;
24617;SDS011;12762;51.730;5.356;2023-02-22T05:05:32;124.63;;;23.90;;
24617;SDS011;12762;51.730;5.356;2023-02-22T05:07:59;140.23;;;23.33;;
24617;SDS011;12762;51.730;5.356;2023-02-22T05:10:26;100.10;;;22.77;;
24617;SDS011;12762;51.730;5.356;2023-02-22T05:12:53;146.97;;;26.37;;
24617;SDS011;12762;51.730;5.356;2023-02-22T05:15:20;124.00;;;23.93;;
24617;SDS011;12762;51.730;5.356;2023-02-22T05:17:48;120.93;;;23.67;;
24617;SDS011;12762;51.730;5.356;2023-02-22T05:20:23;123.40;;;24.23;;
24617;SDS011;12762;51.730;5.356;2023-02-22T05:22:57;157.23;;;26.03;;
24617;SDS011;12762;51.730;5.356;2023-02-22T05:25:26;100.37;;;20.43;;
24617;SDS011;12762;51.730;5.356;2023-02-22T05:27:58;110.97;;;21.93;;
24617;SDS011;12762;51.730;5.356;2023-02-22T05:30:29;110.73;;;20.90;;
24617;SDS011;12762;51.730;5.356;2023-02-22T05:32:58;124.57;;;24.10;;
24617;SDS011;12762;51.730;5.356;2023-02-22T05:35:26;122.77;;;25.63;;
24617;SDS011;12762;51.730;5.356;2023-02-22T05:37:56;124.50;;;22.63;;
24617;SDS011;12762;51.730;5.356;2023-02-22T05:40:25;100.87;;;22.70;;
24617;SDS011;12762;51.730;5.356;2023-02-22T05:42:52;114.87;;;22.30;;
24617;SDS011;12762;51.730;5.356;2023-02-22T05:45:21;87.63;;;21.73;;
24617;SDS011;12762;51.730;5.356;2023-02-22T05:47:50;70.10;;;20.80;;
24617;SDS011;12762;51.730;5.356;2023-02-22T05:50:19;74.23;;;18.97;;
24617;SDS011;12762;51.730;5.356;2023-02-22T05:52:49;75.83;;;19.23;;
24617;SDS011;12762;51.730;5.356;2023-02-22T05:55:20;46.47;;;16.70;;
24617;SDS011;12762;51.730;5.356;2023-02-22T05:57:51;70.90;;;18.60;;
24617;SDS011;12762;51.730;5.356;2023-02-22T06:00:28;59.97;;;17.80;;
24617;SDS011;12762;51.730;5.356;2023-02-22T06:05:26;61.57;;;17.57;;
24617;SDS011;12762;51.730;5.356;2023-02-22T06:07:53;54.47;;;17.00;;
24617;SDS011;12762;51.730;5.356;2023-02-22T06:10:21;61.97;;;17.13;;
24617;SDS011;12762;51.730;5.356;2023-02-22T06:12:49;48.00;;;17.73;;
24617;SDS011;12762;51.730;5.356;2023-02-22T06:15:17;49.20;;;16.40;;
24617;SDS011;12762;51.730;5.356;2023-02-22T06:17:46;50.30;;;18.07;;
24617;SDS011;12762;51.730;5.356;2023-02-22T06:20:15;49.50;;;18.40;;
24617;SDS011;12762;51.730;5.356;2023-02-22T06:22:45;58.50;;;18.83;;
24617;SDS011;12762;51.730;5.356;2023-02-22T06:25:17;54.40;;;19.40;;
24617;SDS011;12762;51.730;5.356;2023-02-22T06:27:46;55.97;;;17.80;;
24617;SDS011;12762;51.730;5.356;2023-02-22T06:30:13;47.70;;;17.40;;
24617;SDS011;12762;51.730;5.356;2023-02-22T06:32:45;63.20;;;18.20;;
24617;SDS011;12762;51.730;5.356;2023-02-22T06:35:13;47.93;;;18.30;;
24617;SDS011;12762;51.730;5.356;2023-02-22T06:37:40;49.77;;;18.00;;
24617;SDS011;12762;51.730;5.356;2023-02-22T06:40:10;49.40;;;18.37;;
24617;SDS011;12762;51.730;5.356;2023-02-22T06:42:38;47.23;;;18.40;;
24617;SDS011;12762;51.730;5.356;2023-02-22T06:45:08;48.87;;;18.63;;
24617;SDS011;12762;51.730;5.356;2023-02-22T06:47:39;52.73;;;19.53;;
24617;SDS011;12762;51.730;5.356;2023-02-22T06:50:16;58.57;;;19.20;;
24617;SDS011;12762;51.730;5.356;2023-02-22T06:52:48;53.67;;;18.50;;
24617;SDS011;12762;51.730;5.356;2023-02-22T06:55:26;48.57;;;18.13;;
24617;SDS011;12762;51.730;5.356;2023-02-22T06:57:54;54.37;;;19.30;;
24617;SDS011;12762;51.730;5.356;2023-02-22T07:00:22;52.07;;;18.53;;
24617;SDS011;12762;51.730;5.356;2023-02-22T07:02:50;64.87;;;19.77;;
24617;SDS011;12762;51.730;5.356;2023-02-22T07:05:19;57.77;;;20.17;;
24617;SDS011;12762;51.730;5.356;2023-02-22T07:07:50;55.27;;;19.23;;
24617;SDS011;12762;51.730;5.356;2023-02-22T07:10:19;50.93;;;19.63;;
24617;SDS011;12762;51.730;5.356;2023-02-22T07:12:49;57.37;;;20.37;;
24617;SDS011;12762;51.730;5.356;2023-02-22T07:15:24;47.87;;;18.73;;
24617;SDS011;12762;51.730;5.356;2023-02-22T07:17:53;55.67;;;20.30;;
24617;SDS011;12762;51.730;5.356;2023-02-22T07:20:20;50.23;;;19.37;;
24617;SDS011;12762;51.730;5.356;2023-02-22T07:22:48;60.50;;;19.27;;
24617;SDS011;12762;51.730;5.356;2023-02-22T07:25:15;56.67;;;18.87;;
24617;SDS011;12762;51.730;5.356;2023-02-22T07:27:42;61.43;;;20.10;;
24617;SDS011;12762;51.730;5.356;2023-02-22T07:30:19;67.80;;;20.43;;
24617;SDS011;12762;51.730;5.356;2023-02-22T07:32:55;59.53;;;19.77;;
24617;SDS011;12762;51.730;5.356;2023-02-22T07:35:27;55.07;;;20.27;;
24617;SDS011;12762;51.730;5.356;2023-02-22T07:37:55;62.27;;;20.30;;
24617;SDS011;12762;51.730;5.356;2023-02-22T07:40:22;54.60;;;19.33;;
24617;SDS011;12762;51.730;5.356;2023-02-22T07:45:47;59.33;;;21.37;;
24617;SDS011;12762;51.730;5.356;2023-02-22T07:48:15;54.90;;;20.20;;
24617;SDS011;12762;51.730;5.356;2023-02-22T07:50:43;59.70;;;19.90;;
24617;SDS011;12762;51.730;5.356;2023-02-22T07:53:12;63.33;;;21.13;;
24617;SDS011;12762;51.730;5.356;2023-02-22T07:55:43;64.13;;;19.63;;
24617;SDS011;12762;51.730;5.356;2023-02-22T07:58:13;56.90;;;20.30;;
24617;SDS011;12762;51.730;5.356;2023-02-22T08:00:41;60.40;;;21.37;;
24617;SDS011;12762;51.730;5.356;2023-02-22T08:03:10;53.93;;;19.80;;
24617;SDS011;12762;51.730;5.356;2023-02-22T08:05:39;55.27;;;21.23;;
24617;SDS011;12762;51.730;5.356;2023-02-22T08:08:08;59.30;;;21.77;;
24617;SDS011;12762;51.730;5.356;2023-02-22T08:10:35;61.67;;;22.07;;
24617;SDS011;12762;51.730;5.356;2023-02-22T08:13:03;56.37;;;21.37;;
24617;SDS011;12762;51.730;5.356;2023-02-22T08:15:32;52.90;;;19.87;;
24617;SDS011;12762;51.730;5.356;2023-02-22T08:18:01;62.80;;;22.47;;
24617;SDS011;12762;51.730;5.356;2023-02-22T08:20:30;65.77;;;22.03;;
24617;SDS011;12762;51.730;5.356;2023-02-22T08:22:57;56.23;;;20.70;;
24617;SDS011;12762;51.730;5.356;2023-02-22T08:25:25;60.37;;;21.30;;
24617;SDS011;12762;51.730;5.356;2023-02-22T08:28:00;64.37;;;22.23;;
24617;SDS011;12762;51.730;5.356;2023-02-22T08:30:38;63.17;;;22.00;;
24617;SDS011;12762;51.730;5.356;2023-02-22T08:33:06;58.47;;;21.83;;
24617;SDS011;12762;51.730;5.356;2023-02-22T08:35:33;54.80;;;21.10;;
24617;SDS011;12762;51.730;5.356;2023-02-22T08:38:03;53.80;;;19.97;;
24617;SDS011;12762;51.730;5.356;2023-02-22T08:40:32;59.03;;;21.40;;
24617;SDS011;12762;51.730;5.356;2023-02-22T08:43:02;57.80;;;21.30;;
24617;SDS011;12762;51.730;5.356;2023-02-22T08:45:29;58.10;;;20.47;;
24617;SDS011;12762;51.730;5.356;2023-02-22T08:47:57;56.90;;;21.10;;
24617;SDS011;12762;51.730;5.356;2023-02-22T08:50:26;55.37;;;20.67;;
24617;SDS011;12762;51.730;5.356;2023-02-22T08:52:59;57.17;;;20.97;;
24617;SDS011;12762;51.730;5.356;2023-02-22T08:55:29;57.17;;;20.83;;
24617;SDS011;12762;51.730;5.356;2023-02-22T08:57:59;56.27;;;20.47;;
24617;SDS011;12762;51.730;5.356;2023-02-22T09:00:31;56.50;;;20.33;;
24617;SDS011;12762;51.730;5.356;2023-02-22T09:02:59;50.70;;;19.97;;
24617;SDS011;12762;51.730;5.356;2023-02-22T09:05:28;49.07;;;20.53;;
24617;SDS011;12762;51.730;5.356;2023-02-22T09:07:56;52.57;;;20.27;;
24617;SDS011;12762;51.730;5.356;2023-02-22T09:10:24;52.67;;;19.43;;
24617;SDS011;12762;51.730;5.356;2023-02-22T09:12:53;54.47;;;20.40;;
24617;SDS011;12762;51.730;5.356;2023-02-22T09:15:21;48.47;;;20.03;;
24617;SDS011;12762;51.730;5.356;2023-02-22T09:17:49;50.80;;;19.53;;
24617;SDS011;12762;51.730;5.356;2023-02-22T09:20:17;53.60;;;20.83;;
24617;SDS011;12762;51.730;5.356;2023-02-22T09:22:45;44.07;;;20.27;;
24617;SDS011;12762;51.730;5.356;2023-02-22T09:25:13;47.37;;;19.40;;
24617;SDS011;12762;51.730;5.356;2023-02-22T09:27:42;43.73;;;18.87;;
24617;SDS011;12762;51.730;5.356;2023-02-22T09:33:12;48.70;;;19.57;;
24617;SDS011;12762;51.730;5.356;2023-02-22T09:35:42;47.87;;;18.97;;
24617;SDS011;12762;51.730;5.356;2023-02-22T09:38:13;50.80;;;20.23;;
24617;SDS011;12762;51.730;5.356;2023-02-22T09:40:53;47.93;;;20.70;;
24617;SDS011;12762;51.730;5.356;2023-02-22T09:48:28;52.43;;;21.57;;
24617;SDS011;12762;51.730;5.356;2023-02-22T09:50:59;44.30;;;19.50;;
24617;SDS011;12762;51.730;5.356;2023-02-22T09:53:31;44.53;;;18.70;;
24617;SDS011;12762;51.730;5.356;2023-02-22T09:56:07;40.43;;;19.63;;
24617;SDS011;12762;51.730;5.356;2023-02-22T09:58:41;46.67;;;18.53;;
24617;SDS011;12762;51.730;5.356;2023-02-22T10:06:26;40.20;;;18.07;;
24617;SDS011;12762;51.730;5.356;2023-02-22T10:08:56;41.67;;;18.33;;
24617;SDS011;12762;51.730;5.356;2023-02-22T10:11:43;39.73;;;19.13;;
24617;SDS011;12762;51.730;5.356;2023-02-22T10:17:20;39.47;;;18.03;;
24617;SDS011;12762;51.730;5.356;2023-02-22T10:25:18;37.07;;;17.53;;
24617;SDS011;12762;51.730;5.356;2023-02-22T10:27:57;35.23;;;16.73;;
24617;SDS011;12762;51.730;5.356;2023-02-22T10:30:37;39.40;;;17.43;;
24617;SDS011;12762;51.730;5.356;2023-02-22T10:35:39;33.67;;;16.17;;
24617;SDS011;12762;51.730;5.356;2023-02-22T10:40:59;29.23;;;14.17;;
24617;SDS011;12762;51.730;5.356;2023-02-22T10:43:42;32.87;;;15.80;;
24617;SDS011;12762;51.730;5.356;2023-02-22T10:46:11;32.33;;;15.77;;
24617;SDS011;12762;51.730;5.356;2023-02-22T10:48:43;28.43;;;14.93;;
24617;SDS011;12762;51.730;5.356;2023-02-22T10:51:13;26.23;;;14.03;;
24617;SDS011;12762;51.730;5.356;2023-02-22T10:53:40;27.67;;;14.23;;
24617;SDS011;12762;51.730;5.356;2023-02-22T10:58:59;32.67;;;15.57;;
24617;SDS011;12762;51.730;5.356;2023-02-22T11:04:14;30.70;;;14.10;;
24617;SDS011;12762;51.730;5.356;2023-02-22T11:06:45;26.80;;;13.57;;
24617;SDS011;12762;51.730;5.356;2023-02-22T11:09:58;27.50;;;14.77;;
24617;SDS011;12762;51.730;5.356;2023-02-22T11:12:37;27.73;;;13.60;;
24617;SDS011;12762;51.730;5.356;2023-02-22T11:15:25;26.07;;;13.73;;
24617;SDS011;12762;51.730;5.356;2023-02-22T11:17:55;22.80;;;12.83;;
24617;SDS011;12762;51.730;5.356;2023-02-22T11:20:32;26.00;;;12.97;;
24617;SDS011;12762;51.730;5.356;2023-02-22T11:23:03;26.27;;;14.00;;
24617;SDS011;12762;51.730;5.356;2023-02-22T11:25:34;24.60;;;12.73;;
24617;SDS011;12762;51.730;5.356;2023-02-22T11:28:06;23.80;;;12.63;;
24617;SDS011;12762;51.730;5.356;2023-02-22T11:30:40;22.43;;;12.10;;
24617;SDS011;12762;51.730;5.356;2023-02-22T11:35:56;23.37;;;12.47;;
24617;SDS011;12762;51.730;5.356;2023-02-22T11:38:31;23.17;;;12.53;;
24617;SDS011;12762;51.730;5.356;2023-02-22T11:41:06;24.97;;;11.80;;
24617;SDS011;12762;51.730;5.356;2023-02-22T11:43:42;23.43;;;12.03;;
24617;SDS011;12762;51.730;5.356;2023-02-22T11:46:33;22.53;;;11.70;;
24617;SDS011;12762;51.730;5.356;2023-02-22T11:51:41;23.03;;;12.07;;
24617;SDS011;12762;51.730;5.356;2023-02-22T12:00:18;23.73;;;12.40;;
24617;SDS011;12762;51.730;5.356;2023-02-22T12:06:10;24.27;;;11.77;;
24617;SDS011;12762;51.730;5.356;2023-02-22T12:14:43;25.33;;;12.57;;
24617;SDS011;12762;51.730;5.356;2023-02-22T12:17:32;22.07;;;11.63;;
24617;SDS011;12762;51.730;5.356;2023-02-22T12:20:03;21.73;;;11.53;;
24617;SDS011;12762;51.730;5.356;2023-02-22T12:22:44;20.67;;;11.43;;
24617;SDS011;12762;51.730;5.356;2023-02-22T12:25:33;20.67;;;10.53;;
24617;SDS011;12762;51.730;5.356;2023-02-22T12:28:15;20.83;;;11.43;;
24617;SDS011;12762;51.730;5.356;2023-02-22T12:30:55;21.17;;;11.57;;
24617;SDS011;12762;51.730;5.356;2023-02-22T12:36:21;20.77;;;11.23;;
24617;SDS011;12762;51.730;5.356;2023-02-22T12:38:56;20.47;;;11.47;;
24617;SDS011;12762;51.730;5.356;2023-02-22T12:41:38;21.90;;;10.93;;
24617;SDS011;12762;51.730;5.356;2023-02-22T12:44:15;20.53;;;11.90;;
24617;SDS011;12762;51.730;5.356;2023-02-22T12:46:49;20.07;;;11.10;;
24617;SDS011;12762;51.730;5.356;2023-02-22T12:49:27;18.90;;;11.47;;
24617;SDS011;12762;51.730;5.356;2023-02-22T12:52:12;22.00;;;12.33;;
24617;SDS011;12762;51.730;5.356;2023-02-22T13:00:33;23.77;;;12.07;;
24617;SDS011;12762;51.730;5.356;2023-02-22T13:03:50;20.27;;;11.50;;
24617;SDS011;12762;51.730;5.356;2023-02-22T13:08:33;23.10;;;12.07;;
24617;SDS011;12762;51.730;5.356;2023-02-22T13:14:15;23.87;;;12.67;;
24617;SDS011;12762;51.730;5.356;2023-02-22T13:22:36;21.67;;;12.30;;
24617;SDS011;12762;51.730;5.356;2023-02-22T13:27:51;21.80;;;12.40;;
24617;SDS011;12762;51.730;5.356;2023-02-22T13:30:40;20.50;;;12.37;;
24617;SDS011;12762;51.730;5.356;2023-02-22T13:33:25;20.17;;;12.83;;
24617;SDS011;12762;51.730;5.356;2023-02-22T13:39:03;20.80;;;12.50;;
24617;SDS011;12762;51.730;5.356;2023-02-22T13:41:50;21.80;;;12.90;;
24617;SDS011;12762;51.730;5.356;2023-02-22T13:44:48;21.13;;;12.90;;
24617;SDS011;12762;51.730;5.356;2023-02-22T13:47:46;20.03;;;12.53;;
24617;SDS011;12762;51.730;5.356;2023-02-22T13:53:38;27.53;;;14.70;;
24617;SDS011;12762;51.730;5.356;2023-02-22T13:56:12;25.27;;;14.63;;
24617;SDS011;12762;51.730;5.356;2023-02-22T13:58:54;22.60;;;14.53;;
24617;SDS011;12762;51.730;5.356;2023-02-22T14:04:21;23.87;;;14.73;;
24617;SDS011;12762;51.730;5.356;2023-02-22T14:06:55;24.93;;;15.03;;
24617;SDS011;12762;51.730;5.356;2023-02-22T14:20:29;20.80;;;14.23;;
24617;SDS011;12762;51.730;5.356;2023-02-22T14:26:08;26.10;;;15.87;;
24617;SDS011;12762;51.730;5.356;2023-02-22T14:28:52;22.80;;;13.80;;
24617;SDS011;12762;51.730;5.356;2023-02-22T14:39:34;25.43;;;15.70;;
24617;SDS011;12762;51.730;5.356;2023-02-22T14:47:20;26.63;;;15.73;;
24617;SDS011;12762;51.730;5.356;2023-02-22T14:50:01;22.03;;;13.83;;
24617;SDS011;12762;51.730;5.356;2023-02-22T14:52:38;24.60;;;15.37;;
24617;SDS011;12762;51.730;5.356;2023-02-22T14:55:19;23.77;;;14.93;;
24617;SDS011;12762;51.730;5.356;2023-02-22T15:00:26;24.00;;;14.70;;
24617;SDS011;12762;51.730;5.356;2023-02-22T15:03:02;28.30;;;15.60;;
24617;SDS011;12762;51.730;5.356;2023-02-22T15:05:35;24.70;;;14.93;;
24617;SDS011;12762;51.730;5.356;2023-02-22T15:08:05;23.57;;;15.43;;
24617;SDS011;12762;51.730;5.356;2023-02-22T15:13:13;25.73;;;15.90;;
24617;SDS011;12762;51.730;5.356;2023-02-22T15:15:55;22.23;;;15.17;;
24617;SDS011;12762;51.730;5.356;2023-02-22T15:18:34;27.40;;;16.57;;
24617;SDS011;12762;51.730;5.356;2023-02-22T15:21:09;26.27;;;15.93;;
24617;SDS011;12762;51.730;5.356;2023-02-22T15:23:51;26.63;;;16.40;;
24617;SDS011;12762;51.730;5.356;2023-02-22T15:28:58;29.37;;;17.00;;
24617;SDS011;12762;51.730;5.356;2023-02-22T15:31:29;26.13;;;16.53;;
24617;SDS011;12762;51.730;5.356;2023-02-22T15:34:09;34.57;;;16.57;;
24617;SDS011;12762;51.730;5.356;2023-02-22T15:36:44;28.93;;;16.83;;
24617;SDS011;12762;51.730;5.356;2023-02-22T15:44:37;29.37;;;17.23;;
24617;SDS011;12762;51.730;5.356;2023-02-22T15:47:06;29.00;;;17.73;;
24617;SDS011;12762;51.730;5.356;2023-02-22T15:49:40;29.77;;;17.83;;
24617;SDS011;12762;51.730;5.356;2023-02-22T15:52:07;28.67;;;16.90;;
24617;SDS011;12762;51.730;5.356;2023-02-22T15:54:46;27.10;;;17.73;;
24617;SDS011;12762;51.730;5.356;2023-02-22T15:57:19;25.93;;;17.53;;
24617;SDS011;12762;51.730;5.356;2023-02-22T15:59:49;26.37;;;17.03;;
24617;SDS011;12762;51.730;5.356;2023-02-22T16:02:32;27.43;;;17.50;;
24617;SDS011;12762;51.730;5.356;2023-02-22T16:05:04;28.83;;;17.33;;
24617;SDS011;12762;51.730;5.356;2023-02-22T16:07:36;35.03;;;19.83;;
24617;SDS011;12762;51.730;5.356;2023-02-22T16:13:41;32.63;;;18.43;;
24617;SDS011;12762;51.730;5.356;2023-02-22T16:16:02;30.93;;;19.10;;
24617;SDS011;12762;51.730;5.356;2023-02-22T16:18:49;28.70;;;18.37;;
24617;SDS011;12762;51.730;5.356;2023-02-22T16:21:21;31.33;;;18.73;;
24617;SDS011;12762;51.730;5.356;2023-02-22T16:23:52;35.57;;;21.23;;
24617;SDS011;12762;51.730;5.356;2023-02-22T16:26:40;32.47;;;19.70;;
24617;SDS011;12762;51.730;5.356;2023-02-22T16:29:07;30.87;;;20.07;;
24617;SDS011;12762;51.730;5.356;2023-02-22T16:31:38;34.87;;;20.07;;
24617;SDS011;12762;51.730;5.356;2023-02-22T16:34:06;32.37;;;20.17;;
24617;SDS011;12762;51.730;5.356;2023-02-22T16:39:31;34.77;;;20.90;;
24617;SDS011;12762;51.730;5.356;2023-02-22T16:42:01;36.47;;;21.63;;
24617;SDS011;12762;51.730;5.356;2023-02-22T16:44:30;36.27;;;21.87;;
24617;SDS011;12762;51.730;5.356;2023-02-22T16:46:57;38.40;;;22.13;;
24617;SDS011;12762;51.730;5.356;2023-02-22T16:49:25;35.33;;;21.50;;
24617;SDS011;12762;51.730;5.356;2023-02-22T16:51:54;38.63;;;22.53;;
24617;SDS011;12762;51.730;5.356;2023-02-22T16:54:27;38.47;;;23.70;;
24617;SDS011;12762;51.730;5.356;2023-02-22T16:57:21;39.77;;;23.80;;
24617;SDS011;12762;51.730;5.356;2023-02-22T16:59:57;41.30;;;23.47;;
24617;SDS011;12762;51.730;5.356;2023-02-22T17:02:26;44.10;;;24.30;;
24617;SDS011;12762;51.730;5.356;2023-02-22T17:04:56;39.70;;;23.47;;
24617;SDS011;12762;51.730;5.356;2023-02-22T17:07:25;42.07;;;23.80;;
24617;SDS011;12762;51.730;5.356;2023-02-22T17:09:56;38.70;;;23.87;;
24617;SDS011;12762;51.730;5.356;2023-02-22T17:12:24;47.03;;;24.67;;
24617;SDS011;12762;51.730;5.356;2023-02-22T17:14:53;39.20;;;24.90;;
24617;SDS011;12762;51.730;5.356;2023-02-22T17:17:20;41.33;;;24.47;;
24617;SDS011;12762;51.730;5.356;2023-02-22T17:19:47;40.53;;;24.90;;
24617;SDS011;12762;51.730;5.356;2023-02-22T17:22:20;42.27;;;24.90;;
24617;SDS011;12762;51.730;5.356;2023-02-22T17:24:47;42.67;;;25.50;;
24617;SDS011;12762;51.730;5.356;2023-02-22T17:27:14;41.90;;;25.27;;
24617;SDS011;12762;51.730;5.356;2023-02-22T17:29:41;41.37;;;25.67;;
24617;SDS011;12762;51.730;5.356;2023-02-22T17:32:11;42.30;;;25.47;;
24617;SDS011;12762;51.730;5.356;2023-02-22T17:34:38;44.33;;;25.20;;
24617;SDS011;12762;51.730;5.356;2023-02-22T17:37:05;47.23;;;26.47;;